Grange-over-Sands, United Kingdom
Current Conditions -  °F | °C
As of 10:20 AM on Tuesday 27 Jan 2015 (Local Time) from EGNH Reporting Station
Broken Clouds Broken Clouds  
Wind Chill: 37°   Ceiling: 3300
Heat Index: 45°   Visibility: 6mi
Dew Point: 43°   Wind: 16mph
Humidity: 93%   Direction: 260°W
Pressure: 30.3"   Gusts: NA
Location:  54.2°N, 2.9°W
Report Text: EGNH 271020Z 26014KT 9999 FEW024 BKN033 07/06 Q1026
Loading
Personal Weather Stations






























Interactive Weather Map New forecast layout! Learn more

10-Day Weather Forecast

Advertisements
Track Severe Weather on mobile